createdAt,value
2018-03-23T00:00:41.866Z,77.12
2018-03-23T00:03:15.141Z,77.16
2018-03-23T00:05:48.419Z,77.62
2018-03-23T00:08:21.692Z,77.50
2018-03-23T00:10:54.940Z,77.77
2018-03-23T00:13:28.208Z,77.75
2018-03-23T01:47:12.709Z,82.21
2018-03-23T01:49:45.968Z,82.89
2018-03-23T01:52:20.008Z,82.38
2018-03-23T01:54:53.259Z,82.71
2018-03-23T01:57:27.322Z,82.73
2018-03-23T02:00:00.578Z,82.45
2018-03-23T03:30:56.243Z,81.54
2018-03-23T03:33:30.300Z,81.50
2018-03-23T03:36:03.556Z,81.59
2018-03-23T03:38:36.822Z,81.41
2018-03-23T03:41:10.848Z,81.49
2018-03-23T03:43:44.909Z,81.28
2018-03-23T04:48:07.245Z,81.85
2018-03-23T04:50:41.266Z,82.02
2018-03-23T04:53:14.544Z,82.42
2018-03-23T04:55:47.797Z,82.63
2018-03-23T04:58:21.093Z,82.67
2018-03-23T05:33:26.860Z,83.59
2018-03-23T05:36:00.921Z,83.81
2018-03-23T05:38:34.162Z,83.83
2018-03-23T05:41:08.209Z,83.89
2018-03-23T05:43:41.456Z,83.88
2018-03-23T05:46:15.565Z,83.48
2018-03-23T05:48:48.757Z,83.49
2018-03-23T05:51:22.039Z,83.45
2018-03-23T05:53:55.288Z,83.27
2018-03-23T05:56:28.560Z,83.16
2018-03-23T05:59:01.850Z,83.05
2018-03-23T06:01:35.889Z,83.14
2018-03-23T06:04:09.140Z,82.97
2018-03-23T06:06:42.424Z,83.02
2018-03-23T06:09:15.685Z,83.01
2018-03-23T06:11:48.965Z,83.02
2018-03-23T06:14:22.207Z,82.82
2018-03-23T06:16:55.508Z,82.75
2018-03-23T06:19:28.768Z,82.64
2018-03-23T06:22:02.041Z,82.55
2018-03-23T06:24:35.314Z,82.42
2018-03-23T06:27:09.339Z,82.22
2018-03-23T06:29:42.609Z,82.14
2018-03-23T06:32:15.862Z,82.01
2018-03-23T06:34:49.129Z,81.90
2018-03-23T06:37:22.378Z,81.86
2018-03-23T06:39:55.661Z,81.81
2018-03-23T06:42:28.925Z,81.62
2018-03-23T06:45:02.204Z,81.63
2018-03-23T06:47:35.472Z,81.84
2018-03-23T06:50:08.751Z,81.61
2018-03-23T06:52:42.797Z,81.65
2018-03-23T06:55:16.050Z,81.53
2018-03-23T06:57:49.320Z,81.64
2018-03-23T07:00:22.573Z,81.48
2018-03-23T07:02:55.841Z,81.55
2018-03-23T07:05:29.085Z,81.25
2018-03-23T07:08:02.394Z,81.24
2018-03-23T07:10:35.653Z,81.29
2018-03-23T07:13:08.949Z,81.36
2018-03-23T07:15:42.209Z,81.35
2018-03-23T07:18:15.484Z,81.48
2018-03-23T07:20:48.776Z,81.28
2018-03-23T07:23:22.024Z,81.30
2018-03-23T07:25:55.298Z,81.26
2018-03-23T07:28:28.564Z,81.50
2018-03-23T08:03:23.133Z,81.61
2018-03-23T08:05:56.386Z,81.21
2018-03-23T08:08:30.438Z,81.02
2018-03-23T08:11:03.691Z,81.14
2018-03-23T08:13:36.977Z,81.24
2018-03-23T09:01:43.429Z,78.76
2018-03-23T09:04:16.684Z,78.45
2018-03-23T09:06:49.964Z,78.49
2018-03-23T09:09:23.255Z,78.29
2018-03-23T09:11:56.539Z,78.21
2018-03-23T09:14:29.814Z,78.08
2018-03-23T10:02:36.388Z,77.27
2018-03-23T10:05:09.641Z,77.38
2018-03-23T10:07:42.922Z,77.29
2018-03-23T10:10:16.164Z,77.57
2018-03-23T10:12:50.212Z,77.68
2018-03-23T11:01:02.197Z,77.32
2018-03-23T11:03:35.475Z,76.28
2018-03-23T11:06:08.729Z,76.06
2018-03-23T11:08:42.011Z,75.94
2018-03-23T11:11:15.245Z,75.98
2018-03-23T11:13:48.528Z,75.95
2018-03-23T12:01:53.322Z,76.56
2018-03-23T12:04:26.578Z,76.50
2018-03-23T12:06:59.863Z,76.77
2018-03-23T12:09:33.113Z,76.44
2018-03-23T12:12:07.146Z,76.62
2018-03-23T12:14:40.409Z,76.56
2018-03-23T13:02:47.177Z,71.30
2018-03-23T13:05:21.231Z,71.02
2018-03-23T13:07:54.471Z,71.64
2018-03-23T13:10:27.765Z,70.69
2018-03-23T13:13:01.782Z,70.74
2018-03-23T14:01:08.812Z,64.66
2018-03-23T14:03:42.061Z,65.50
2018-03-23T14:06:15.334Z,64.83
2018-03-23T14:08:49.362Z,64.71
2018-03-23T14:11:23.406Z,65.24
2018-03-23T14:13:56.694Z,64.74
2018-03-23T15:02:02.514Z,61.65
2018-03-23T15:04:35.731Z,62.45
2018-03-23T15:07:08.997Z,62.27
2018-03-23T15:09:43.018Z,62.21
2018-03-23T15:12:17.055Z,62.47
2018-03-23T15:14:50.314Z,62.72
2018-03-23T15:46:40.409Z,60.75
2018-03-23T15:49:13.666Z,61.20
2018-03-23T15:51:46.944Z,61.43
2018-03-23T15:54:20.184Z,61.62
2018-03-23T15:56:53.460Z,61.35
2018-03-23T15:59:26.721Z,61.47
2018-03-23T16:02:00.065Z,61.15
2018-03-23T16:04:34.003Z,61.06
2018-03-23T16:07:08.046Z,60.96
2018-03-23T16:09:41.303Z,61.42
2018-03-23T16:12:14.582Z,61.73
2018-03-23T16:14:47.829Z,62.06
2018-03-23T16:17:21.115Z,62.08
2018-03-23T16:19:54.366Z,62.06
2018-03-23T16:22:27.644Z,61.92
2018-03-23T16:25:00.892Z,62.08
2018-03-23T16:27:34.161Z,62.32
2018-03-23T16:30:08.173Z,62.47
2018-03-23T16:32:41.457Z,62.60
2018-03-23T16:35:14.722Z,62.38
2018-03-23T16:37:48.002Z,62.70
2018-03-23T16:40:21.242Z,62.92
2018-03-23T16:42:55.334Z,63.07
2018-03-23T16:45:28.538Z,63.29
2018-03-23T16:48:01.845Z,63.54
2018-03-23T16:50:35.070Z,63.62
2018-03-23T16:53:08.338Z,63.51
2018-03-23T16:55:41.588Z,63.55
2018-03-23T16:58:14.921Z,63.46
2018-03-23T17:00:48.939Z,63.64
2018-03-23T17:03:22.221Z,63.12
2018-03-23T17:05:55.461Z,63.14
2018-03-23T17:08:28.742Z,62.94
2018-03-23T17:11:02.002Z,62.81
2018-03-23T17:13:35.292Z,62.55
2018-03-23T17:16:08.529Z,62.74
2018-03-23T17:18:42.909Z,62.79
2018-03-23T17:21:16.177Z,63.03
2018-03-23T17:23:49.421Z,63.21
2018-03-23T17:26:22.726Z,63.34
2018-03-23T17:28:55.973Z,63.49
2018-03-23T17:31:29.246Z,63.66
2018-03-23T17:34:02.503Z,63.92
2018-03-23T17:36:35.993Z,63.99
2018-03-23T17:39:10.018Z,63.96
2018-03-23T17:41:43.270Z,63.95
2018-03-23T17:44:16.564Z,63.98
2018-03-23T17:46:49.809Z,64.06
2018-03-23T17:49:23.086Z,64.31
2018-03-23T17:51:56.338Z,64.40
2018-03-23T17:54:29.616Z,64.47
2018-03-23T17:57:02.885Z,64.65
2018-03-23T17:59:36.129Z,64.85
2018-03-23T18:02:10.270Z,64.96
2018-03-23T18:04:43.537Z,64.94
2018-03-23T18:07:17.473Z,64.87
2018-03-23T18:09:50.843Z,64.77
2018-03-23T18:12:25.103Z,64.81
2018-03-23T18:14:58.520Z,64.87
2018-03-23T18:17:31.787Z,64.83
2018-03-23T18:20:05.123Z,65.16
2018-03-23T18:22:39.126Z,65.30
2018-03-23T18:25:12.406Z,65.38
2018-03-23T18:27:45.653Z,65.50
2018-03-23T18:30:18.937Z,65.58
2018-03-23T18:32:52.215Z,65.59
2018-03-23T18:35:25.471Z,65.46
2018-03-23T18:37:58.740Z,65.26
2018-03-23T18:40:32.782Z,65.09
2018-03-23T18:43:06.038Z,65.10
2018-03-23T18:45:40.093Z,65.10
2018-03-23T18:48:14.255Z,65.08
2018-03-23T18:50:47.498Z,65.13
2018-03-23T18:53:20.775Z,65.15
2018-03-23T18:55:54.054Z,65.16
2018-03-23T18:58:28.069Z,65.16
2018-03-23T19:01:01.868Z,65.16
2018-03-23T19:03:35.889Z,65.14
2018-03-23T19:06:09.156Z,64.96
2018-03-23T19:08:42.434Z,64.96
2018-03-23T19:11:15.690Z,65.13
2018-03-23T19:13:49.007Z,65.45
2018-03-23T19:16:22.263Z,65.44
2018-03-23T19:18:55.534Z,65.47
2018-03-23T19:21:29.546Z,65.68
2018-03-23T19:24:02.824Z,65.95
2018-03-23T19:26:36.072Z,66.09
2018-03-23T19:29:09.357Z,66.22
2018-03-23T19:34:15.944Z,66.60
2018-03-23T19:36:49.197Z,66.85
2018-03-23T19:39:22.477Z,67.02
2018-03-23T19:41:55.738Z,67.24
2018-03-23T19:44:29.027Z,67.47
2018-03-23T19:47:02.276Z,67.58
2018-03-23T19:49:35.559Z,67.70
2018-03-23T19:52:08.834Z,67.83
2018-03-23T19:54:42.078Z,67.89
2018-03-23T19:57:15.466Z,67.96
2018-03-23T19:59:48.677Z,68.01
2018-03-23T20:02:21.945Z,68.08
2018-03-23T20:04:55.235Z,68.14
2018-03-23T20:07:28.471Z,68.24
2018-03-23T20:10:01.765Z,68.37
2018-03-23T20:12:35.028Z,68.50
2018-03-23T20:15:09.070Z,68.57
2018-03-23T20:17:47.953Z,68.57
2018-03-23T20:20:26.789Z,68.63
2018-03-23T20:23:00.065Z,68.66
2018-03-23T20:25:33.304Z,68.68
2018-03-23T20:28:12.011Z,68.68
2018-03-23T20:30:46.043Z,68.67
2018-03-23T20:33:19.318Z,68.62
2018-03-23T20:35:53.337Z,68.69
2018-03-23T20:38:27.378Z,68.87
2018-03-23T20:41:00.633Z,69.21
2018-03-23T20:43:34.663Z,69.27
2018-03-23T20:46:07.917Z,69.32
2018-03-23T20:48:41.187Z,69.35
2018-03-23T20:51:14.469Z,69.39
2018-03-23T20:53:47.719Z,69.45
2018-03-23T20:56:21.767Z,69.45
2018-03-23T20:58:55.045Z,69.39
2018-03-23T21:01:28.301Z,69.44
2018-03-23T21:04:02.350Z,69.49
2018-03-23T21:06:35.593Z,69.52
2018-03-23T21:09:08.891Z,69.50
2018-03-23T21:11:42.154Z,69.49
2018-03-23T21:14:15.408Z,69.50
2018-03-23T21:16:48.708Z,69.44
2018-03-23T21:19:21.981Z,69.53
2018-03-23T21:21:55.259Z,69.54
2018-03-23T21:24:28.542Z,69.57
2018-03-23T21:27:01.810Z,69.61
2018-03-23T21:29:35.079Z,69.65
2018-03-23T21:32:08.340Z,69.62
2018-03-23T21:34:41.635Z,69.55
2018-03-23T21:37:14.890Z,69.59
2018-03-23T21:39:48.161Z,69.57
2018-03-23T21:42:21.412Z,69.56
2018-03-23T21:44:54.686Z,69.58
2018-03-23T21:47:27.945Z,69.59
2018-03-23T21:50:01.226Z,69.59
2018-03-23T21:52:34.521Z,69.61
2018-03-23T21:55:07.803Z,69.51
2018-03-23T21:57:41.823Z,69.40
2018-03-23T22:00:15.861Z,69.38
2018-03-23T22:02:49.111Z,69.45
2018-03-23T22:05:23.158Z,69.39
2018-03-23T22:07:56.388Z,69.32
2018-03-23T22:10:29.661Z,69.39
2018-03-23T22:13:02.909Z,69.37
2018-03-23T22:15:36.946Z,69.34
2018-03-23T22:18:10.204Z,69.33
2018-03-23T22:20:43.473Z,69.37
2018-03-23T22:23:16.746Z,69.34
2018-03-23T22:25:49.989Z,69.33
2018-03-23T22:28:24.035Z,69.36
2018-03-23T22:30:57.287Z,69.31
2018-03-23T22:33:30.554Z,69.29
2018-03-23T22:36:03.811Z,69.29
2018-03-23T22:38:37.081Z,69.28
2018-03-23T22:41:11.085Z,69.37
2018-03-23T22:43:45.130Z,69.37
2018-03-23T22:46:18.395Z,69.34
2018-03-23T22:48:51.653Z,69.45
2018-03-23T22:51:24.895Z,69.54
2018-03-23T22:53:58.953Z,69.54
2018-03-23T22:56:32.192Z,69.55
2018-03-23T22:59:05.463Z,69.61
2018-03-23T23:01:38.713Z,69.62
2018-03-23T23:04:11.987Z,69.62
2018-03-23T23:06:45.995Z,69.62
2018-03-23T23:09:19.267Z,69.58
2018-03-23T23:11:52.509Z,69.55
2018-03-23T23:14:25.800Z,69.51
2018-03-23T23:16:59.062Z,69.59
2018-03-23T23:19:33.069Z,69.57
2018-03-23T23:22:06.357Z,69.62
2018-03-23T23:24:40.377Z,69.46
2018-03-23T23:27:13.642Z,69.39
2018-03-23T23:29:46.889Z,69.39
2018-03-23T23:32:20.154Z,69.10
2018-03-23T23:34:54.205Z,69.18
2018-03-23T23:37:27.482Z,69.15
2018-03-23T23:40:00.733Z,69.20
2018-03-23T23:42:33.997Z,68.96
2018-03-23T23:45:07.259Z,68.96
2018-03-23T23:47:41.284Z,68.98
2018-03-23T23:50:14.537Z,68.96
2018-03-23T23:52:47.828Z,68.84
2018-03-23T23:55:21.068Z,68.78
2018-03-23T23:57:54.366Z,68.77
